Time;durP1;ratioP1;P1;durP2;ratioP2;P2;SDS_P1;SDS_P2;PMS_P1;PMS_P2;Temp;Humidity;BMP_temperature;BMP_pressure;BME280_temperature;BME280_humidity;BME280_pressure;Samples;Min_cycle;Max_cycle;Signal;HPM_P1;HPM_P2
2023/07/06 00:01:25;;;;;;;5.55;3.58;;;;;;;16.37;100.00;100336.66;5136350;27;20027;-75
2023/07/06 00:03:51;;;;;;;8.93;3.33;;;;;;;16.34;100.00;100338.50;5136021;27;20107;-76
2023/07/06 00:06:28;;;;;;;8.20;3.55;;;;;;;16.32;100.00;100337.47;5136264;27;20031;-77
2023/07/06 00:08:54;;;;;;;7.05;3.53;;;;;;;16.26;100.00;100333.81;5137501;27;20606;-76
2023/07/06 00:11:21;;;;;;;8.82;4.10;;;;;;;16.27;100.00;100335.38;5136146;27;20035;-76
2023/07/06 00:13:48;;;;;;;12.20;4.13;;;;;;;16.25;100.00;100344.59;5135946;27;20031;-75
2023/07/06 00:16:16;;;;;;;6.85;3.63;;;;;;;16.24;100.00;100339.34;5137442;27;20471;-75
2023/07/06 00:18:42;;;;;;;5.45;3.28;;;;;;;16.22;100.00;100342.75;5135946;27;20049;-76
2023/07/06 00:21:08;;;;;;;5.68;3.10;;;;;;;16.23;100.00;100355.06;5137370;27;20348;-76
2023/07/06 00:23:34;;;;;;;8.27;3.47;;;;;;;16.16;100.00;100349.84;5137251;27;20019;-76
2023/07/06 00:26:05;;;;;;;6.68;3.75;;;;;;;16.15;100.00;100346.22;5137228;27;20027;-75
2023/07/06 00:28:32;;;;;;;5.43;3.40;;;;;;;16.02;100.00;100338.13;5137091;27;20038;-76
2023/07/06 00:31:08;;;;;;;8.43;3.65;;;;;;;16.04;100.00;100347.03;5136676;27;20023;-75
2023/07/06 00:33:36;;;;;;;6.22;3.28;;;;;;;15.99;100.00;100347.84;5136079;27;20046;-76
2023/07/06 00:36:03;;;;;;;6.65;3.38;;;;;;;15.99;100.00;100361.47;5137163;27;20409;-76
2023/07/06 00:38:29;;;;;;;8.48;4.00;;;;;;;15.94;100.00;100353.63;5135596;27;20026;-76
2023/07/06 00:40:57;;;;;;;9.45;3.17;;;;;;;15.91;100.00;100351.81;5137057;27;20034;-76
2023/07/06 00:43:28;;;;;;;7.47;3.58;;;;;;;15.87;100.00;100354.94;5135760;27;20038;-76
2023/07/06 00:46:08;;;;;;;5.85;3.20;;;;;;;15.85;100.00;100351.84;5135935;27;20390;-75
2023/07/06 00:48:37;;;;;;;6.03;3.05;;;;;;;15.82;100.00;100352.09;5135589;27;20072;-76
2023/07/06 00:51:09;;;;;;;6.25;3.00;;;;;;;15.81;100.00;100362.06;5118228;27;20414;-76
2023/07/06 00:54:03;;;;;;;7.55;3.53;;;;;;;15.81;100.00;100362.06;5118814;27;20023;-75
2023/07/06 00:56:31;;;;;;;5.50;3.45;;;;;;;15.78;100.00;100363.09;5135629;27;20019;-76
2023/07/06 00:59:02;;;;;;;6.78;3.20;;;;;;;15.78;100.00;100375.41;5114620;28;20044;-76
2023/07/06 01:01:32;;;;;;;6.93;3.50;;;;;;;15.74;100.00;100371.25;5114999;28;20491;-75
2023/07/06 01:03:59;;;;;;;7.55;3.60;;;;;;;15.66;100.00;100356.59;5119166;27;20481;-76
2023/07/06 01:06:37;;;;;;;7.45;3.63;;;;;;;15.70;100.00;100377.28;5118421;27;20425;-75
2023/07/06 01:09:04;;;;;;;8.93;3.35;;;;;;;15.63;100.00;100367.06;5114558;28;20036;-75
2023/07/06 01:11:33;;;;;;;11.45;3.55;;;;;;;15.64;100.00;100376.50;5114410;28;20083;-76
2023/07/06 01:13:58;;;;;;;7.43;3.72;;;;;;;15.60;100.00;100373.91;5086323;28;20027;-76
2023/07/06 01:16:38;;;;;;;5.05;3.10;;;;;;;15.55;100.00;100376.75;5119292;28;20084;-75
2023/07/06 01:19:24;;;;;;;5.88;3.65;;;;;;;15.49;100.00;100373.09;5124896;27;20015;-76
2023/07/06 01:22:17;;;;;;;8.10;3.50;;;;;;;15.38;100.00;100373.09;5138087;27;20027;-74
2023/07/06 01:25:20;;;;;;;5.35;3.08;;;;;;;15.30;100.00;100375.72;5130307;27;20085;-75
2023/07/06 01:28:06;;;;;;;7.60;3.53;;;;;;;15.20;100.00;100380.97;5135065;27;20027;-75
2023/07/06 01:30:42;;;;;;;10.75;3.58;;;;;;;15.14;100.00;100377.31;5134715;27;20027;-75
2023/07/06 01:33:15;;;;;;;12.23;3.58;;;;;;;15.10;100.00;100376.78;5133613;27;20023;-76
2023/07/06 01:36:10;;;;;;;5.25;3.28;;;;;;;15.05;100.00;100371.81;5133644;27;20042;-75
2023/07/06 01:38:37;;;;;;;8.93;3.45;;;;;;;15.00;100.00;100371.81;5129829;27;20046;-75
2023/07/06 01:41:03;;;;;;;7.65;3.83;;;;;;;14.94;100.00;100371.78;5134701;27;20122;-75
2023/07/06 01:43:28;;;;;;;8.60;3.85;;;;;;;14.91;100.00;100369.19;5133871;27;20035;-74
2023/07/06 01:45:55;;;;;;;6.82;3.90;;;;;;;14.88;100.00;100373.88;5100885;27;20027;-74
2023/07/06 01:48:29;;;;;;;5.75;3.40;;;;;;;14.80;100.00;100370.75;5135147;27;20105;-76
2023/07/06 01:50:55;;;;;;;6.95;3.53;;;;;;;14.82;100.00;100376.75;5134611;27;20102;-76
2023/07/06 01:53:40;;;;;;;8.40;3.20;;;;;;;14.80;100.00;100364.97;5135681;27;20100;-75
2023/07/06 01:56:14;;;;;;;6.57;3.92;;;;;;;14.76;100.00;100372.31;5134123;27;20568;-75
2023/07/06 01:58:51;;;;;;;8.40;3.50;;;;;;;14.69;100.00;100369.91;5117809;27;20023;-76
2023/07/06 02:01:22;;;;;;;9.80;3.70;;;;;;;14.67;100.00;100375.44;5096551;28;20047;-76
2023/07/06 02:03:50;;;;;;;5.85;3.90;;;;;;;14.63;100.00;100374.88;5096798;28;20115;-76
2023/07/06 02:06:17;;;;;;;8.80;3.65;;;;;;;14.62;100.00;100367.56;5134390;27;20037;-76
2023/07/06 02:08:43;;;;;;;6.72;4.05;;;;;;;14.60;100.00;100381.69;5116605;27;20093;-77
2023/07/06 02:11:27;;;;;;;8.95;3.22;;;;;;;14.62;100.00;100382.75;5134242;27;20165;-76
2023/07/06 02:13:53;;;;;;;12.55;3.33;;;;;;;14.62;100.00;100379.06;5133845;27;20025;-75
2023/07/06 02:16:20;;;;;;;6.53;3.33;;;;;;;14.65;100.00;100378.81;5111988;28;20110;-76
2023/07/06 02:18:48;;;;;;;6.82;3.50;;;;;;;14.67;100.00;100386.94;5114312;28;20015;-76
2023/07/06 02:21:15;;;;;;;6.55;3.50;;;;;;;14.67;100.00;100390.59;5115743;27;20028;-75
2023/07/06 02:23:41;;;;;;;6.50;3.10;;;;;;;14.64;100.00;100387.97;5135431;27;20022;-75
2023/07/06 02:26:07;;;;;;;7.20;3.33;;;;;;;14.67;100.00;100389.81;5133873;27;20027;-76
2023/07/06 02:28:34;;;;;;;8.18;3.53;;;;;;;14.70;100.00;100398.19;5135019;27;20034;-76
2023/07/06 02:31:03;;;;;;;8.13;3.20;;;;;;;14.69;100.00;100402.34;5112936;28;20034;-76
2023/07/06 02:33:30;;;;;;;10.55;3.70;;;;;;;14.71;100.00;100401.84;5096494;28;20539;-75
2023/07/06 02:35:56;;;;;;;8.77;3.90;;;;;;;14.70;100.00;100400.25;5128854;27;20126;-76
2023/07/06 02:38:33;;;;;;;5.85;3.20;;;;;;;14.66;100.00;100399.75;5134164;27;20098;-76
2023/07/06 02:41:05;;;;;;;8.25;3.90;;;;;;;14.68;100.00;100406.53;5134701;27;20031;-76
2023/07/06 02:43:31;;;;;;;6.38;3.42;;;;;;;14.68;100.00;100411.50;5134840;27;20042;-74
2023/07/06 02:45:58;;;;;;;6.55;3.80;;;;;;;14.67;100.00;100419.38;5113038;28;20031;-76
2023/07/06 02:48:26;;;;;;;10.73;3.25;;;;;;;14.65;100.00;100424.84;5079121;28;20036;-75
2023/07/06 02:50:51;;;;;;;4.40;3.20;;;;;;;14.63;100.00;100418.81;5129079;27;20054;-76
2023/07/06 02:53:19;;;;;;;5.63;3.55;;;;;;;14.64;100.00;100423.25;5134859;27;20058;-75
2023/07/06 02:55:48;;;;;;;6.78;3.15;;;;;;;14.64;100.00;100416.72;5134448;27;20062;-76
2023/07/06 02:58:15;;;;;;;7.53;3.78;;;;;;;14.67;100.00;100421.44;5134762;27;20031;-75
2023/07/06 03:00:41;;;;;;;6.15;3.28;;;;;;;14.70;100.00;100421.19;5134397;27;20110;-76
2023/07/06 03:03:08;;;;;;;6.22;3.13;;;;;;;14.74;100.00;100421.72;5134442;27;20031;-76
2023/07/06 03:05:49;;;;;;;10.90;3.72;;;;;;;14.77;100.00;100414.91;5134734;27;20023;-75
2023/07/06 03:08:16;;;;;;;5.63;3.47;;;;;;;14.78;100.00;100422.25;5134340;27;20027;-75
2023/07/06 03:10:46;;;;;;;8.52;3.20;;;;;;;14.83;100.00;100423.56;5132900;28;20043;-75
2023/07/06 03:13:15;;;;;;;4.97;3.13;;;;;;;14.87;100.00;100420.44;5116588;28;20491;-76
2023/07/06 03:15:41;;;;;;;6.90;3.00;;;;;;;14.89;100.00;100415.72;5132929;28;20505;-75
2023/07/06 03:18:08;;;;;;;5.03;3.03;;;;;;;14.92;100.00;100419.69;5133151;28;20166;-75
2023/07/06 03:20:36;;;;;;;6.05;3.28;;;;;;;14.96;100.00;100408.69;5112397;28;20126;-74
2023/07/06 03:23:02;;;;;;;6.75;3.47;;;;;;;15.05;100.00;100417.84;5112447;28;20115;-75
2023/07/06 03:25:29;;;;;;;6.65;3.30;;;;;;;15.15;100.00;100419.19;5121742;28;20503;-75
2023/07/06 03:27:56;;;;;;;6.28;3.45;;;;;;;15.27;100.00;100423.63;5133285;28;20039;-76
2023/07/06 03:30:27;;;;;;;8.27;3.80;;;;;;;15.36;100.00;100425.47;5134125;27;20059;-75
2023/07/06 03:33:00;;;;;;;6.73;3.37;;;;;;;15.41;100.00;100429.66;5133001;28;20091;-76
2023/07/06 03:35:28;;;;;;;9.20;3.90;;;;;;;15.44;100.00;100429.38;5113132;28;20039;-76
2023/07/06 03:37:55;;;;;;;6.22;3.40;;;;;;;15.40;100.00;100430.97;5112265;28;20388;-75
2023/07/06 03:40:21;;;;;;;12.35;3.55;;;;;;;15.47;100.00;100439.06;5121107;28;20031;-75
2023/07/06 03:42:49;;;;;;;7.80;4.13;;;;;;;15.46;100.00;100444.06;5115760;28;20035;-76
2023/07/06 03:45:16;;;;;;;13.85;4.40;;;;;;;15.42;100.00;100446.38;5134314;27;20027;-76
2023/07/06 03:47:45;;;;;;;6.63;3.47;;;;;;;15.44;100.00;100454.53;5132781;28;20476;-75
2023/07/06 03:50:15;;;;;;;6.57;3.30;;;;;;;15.42;100.00;100457.13;5132629;28;20039;-76
2023/07/06 03:52:42;;;;;;;9.77;3.60;;;;;;;15.43;100.00;100458.69;5133924;27;20058;-75
2023/07/06 03:55:12;;;;;;;5.80;3.17;;;;;;;15.45;100.00;100459.75;5132683;28;20383;-75
2023/07/06 03:57:40;;;;;;;7.85;3.70;;;;;;;15.47;100.00;100462.09;5132887;28;20383;-75
2023/07/06 04:00:16;;;;;;;6.95;3.20;;;;;;;15.54;100.00;100468.13;5132473;28;20076;-75
2023/07/06 04:02:49;;;;;;;7.00;3.40;;;;;;;15.67;100.00;100468.41;5133096;28;20031;-76
2023/07/06 04:05:31;;;;;;;5.38;3.42;;;;;;;15.78;100.00;100466.84;5132505;27;20038;-75
2023/07/06 04:08:03;;;;;;;7.68;3.30;;;;;;;15.89;100.00;100470.50;5135880;27;20063;-76
2023/07/06 04:10:30;;;;;;;8.98;3.60;;;;;;;16.03;100.00;100468.63;5119456;27;20039;-76
2023/07/06 04:12:58;;;;;;;6.95;3.00;;;;;;;16.15;100.00;100473.06;5137467;27;20459;-76
2023/07/06 04:15:25;;;;;;;9.57;3.33;;;;;;;16.26;100.00;100489.53;5115350;28;20035;-76
2023/07/06 04:17:53;;;;;;;12.50;3.83;;;;;;;16.32;100.00;100491.09;5098757;28;20075;-76
2023/07/06 04:20:38;;;;;;;21.52;4.10;;;;;;;16.44;100.00;100483.22;5121742;27;20054;-75
2023/07/06 04:23:18;;;;;;;11.30;4.10;;;;;;;16.51;100.00;100486.31;5137695;27;20027;-76
2023/07/06 04:25:43;;;;;;;15.88;4.85;;;;;;;16.53;100.00;100480.84;5135946;27;20031;-75
2023/07/06 04:28:14;;;;;;;6.32;3.20;;;;;;;16.61;100.00;100489.72;5137156;27;20110;-76
2023/07/06 04:30:50;;;;;;;11.45;3.95;;;;;;;16.60;100.00;100490.28;5137091;27;20405;-75
2023/07/06 04:33:19;;;;;;;13.55;3.83;;;;;;;16.59;100.00;100497.34;5118814;27;20118;-75
2023/07/06 04:35:51;;;;;;;15.20;4.13;;;;;;;16.62;100.00;100502.06;5118843;27;20164;-76
2023/07/06 04:38:19;;;;;;;13.38;4.63;;;;;;;16.66;100.00;100493.91;5136807;27;20030;-75
2023/07/06 04:40:45;;;;;;;16.27;4.78;;;;;;;16.68;100.00;100494.94;5118305;27;20379;-76
2023/07/06 04:43:26;;;;;;;10.77;4.07;;;;;;;16.77;100.00;100505.41;5134701;27;20039;-75
2023/07/06 04:45:55;;;;;;;;;;;;;;;16.76;100.00;100501.72;5137507;27;20130;-75
2023/07/06 04:48:22;;;;;;;9.43;3.55;;;;;;;16.74;100.00;100501.50;5135294;27;20355;-77
2023/07/06 04:50:54;;;;;;;7.32;3.53;;;;;;;16.72;100.00;100509.09;5135170;27;20023;-76
2023/07/06 04:53:22;;;;;;;9.18;4.00;;;;;;;16.70;100.00;100512.50;5135777;27;20051;-75
2023/07/06 04:55:50;;;;;;;13.57;4.10;;;;;;;16.76;100.00;100513.28;5136887;27;20034;-75
2023/07/06 04:58:16;;;;;;;8.15;4.30;;;;;;;16.84;100.00;100516.41;5118200;27;20493;-76
2023/07/06 05:00:45;;;;;;;5.63;3.03;;;;;;;16.94;100.00;100518.44;5135621;27;20022;-75
2023/07/06 05:03:12;;;;;;;9.27;3.47;;;;;;;17.02;100.00;100515.78;5136546;27;20035;-75
2023/07/06 05:05:46;;;;;;;8.88;3.97;;;;;;;17.08;100.00;100519.44;5135313;27;20030;-77
2023/07/06 05:08:16;;;;;;;7.47;3.67;;;;;;;17.14;100.00;100530.94;5135078;27;20418;-76
2023/07/06 05:10:47;;;;;;;6.00;3.30;;;;;;;17.19;100.00;100530.13;5118480;27;20054;-76
2023/07/06 05:13:22;;;;;;;14.93;3.50;;;;;;;17.22;100.00;100537.72;5135341;27;20054;-76
2023/07/06 05:15:52;;;;;;;6.72;3.60;;;;;;;17.19;100.00;100530.13;5135094;27;20095;-77
2023/07/06 05:18:19;;;;;;;15.45;3.85;;;;;;;17.21;100.00;100542.72;5134890;27;20483;-77
2023/07/06 05:20:49;;;;;;;18.92;4.38;;;;;;;17.25;100.00;100539.53;5135408;27;20054;-77
2023/07/06 05:23:28;;;;;;;10.77;4.37;;;;;;;17.35;100.00;100549.44;5118181;27;20039;-78
2023/07/06 05:26:05;;;;;;;13.23;4.05;;;;;;;17.41;100.00;100542.31;5136010;27;20038;-76
2023/07/06 05:28:39;;;;;;;9.95;3.95;;;;;;;17.44;100.00;100539.69;5131863;27;20042;-77
2023/07/06 05:31:05;;;;;;;10.48;3.70;;;;;;;17.41;100.00;100532.88;5138237;27;20029;-76
2023/07/06 05:33:46;;;;;;;24.40;5.30;;;;;;;17.48;100.00;100540.22;5145905;27;20047;-79
2023/07/06 05:36:12;;;;;;;12.32;4.20;;;;;;;17.55;100.00;100534.63;5125844;27;20038;-76
2023/07/06 05:38:38;;;;;;;12.70;4.35;;;;;;;17.58;100.00;100536.47;5143447;27;20027;-77
2023/07/06 05:41:05;;;;;;;7.22;3.38;;;;;;;17.55;100.00;100540.41;5135420;27;20429;-77
2023/07/06 05:43:31;;;;;;;17.00;3.60;;;;;;;17.60;100.00;100542.47;5135598;27;20055;-76
2023/07/06 05:45:56;;;;;;;16.98;4.03;;;;;;;17.62;100.00;100554.31;5117282;27;20431;-76
2023/07/06 05:48:23;;;;;;;15.65;3.95;;;;;;;17.62;100.00;100551.41;5134286;27;20027;-76
2023/07/06 05:50:49;;;;;;;14.98;4.07;;;;;;;17.55;100.00;100533.84;5135614;27;20027;-76
2023/07/06 05:53:15;;;;;;;11.20;4.07;;;;;;;17.72;100.00;100546.88;5135655;27;20373;-76
2023/07/06 05:55:43;;;;;;;12.43;4.05;;;;;;;17.79;100.00;100549.16;5135495;27;20038;-77
2023/07/06 05:58:10;;;;;;;10.02;4.18;;;;;;;17.87;100.00;100548.59;5117513;27;20129;-77
2023/07/06 06:00:39;;;;;;;11.90;4.45;;;;;;;17.90;100.00;100535.94;5135476;27;20019;-76
2023/07/06 06:03:06;;;;;;;11.30;4.20;;;;;;;18.01;100.00;100542.41;5134376;27;20413;-77
2023/07/06 06:05:34;;;;;;;19.45;3.60;;;;;;;18.14;100.00;100545.44;5135609;27;20027;-77
2023/07/06 06:08:02;;;;;;;9.27;3.67;;;;;;;18.27;100.00;100545.59;5134054;27;20031;-77
2023/07/06 06:10:28;;;;;;;7.43;3.40;;;;;;;18.44;100.00;100557.00;5134876;27;20541;-76
2023/07/06 06:12:55;;;;;;;10.15;4.03;;;;;;;18.61;100.00;100557.63;5135601;27;20027;-76
2023/07/06 06:15:21;;;;;;;8.70;4.47;;;;;;;18.79;100.00;100540.81;5133674;27;20023;-77
2023/07/06 06:17:48;;;;;;;6.18;3.22;;;;;;;19.06;100.00;100542.59;5135211;27;20025;-76
2023/07/06 06:20:13;;;;;;;10.13;3.90;;;;;;;19.48;100.00;100547.56;5133764;27;20504;-78
2023/07/06 06:22:40;;;;;;;20.00;4.93;;;;;;;19.86;100.00;100541.66;5135424;27;20052;-77
2023/07/06 06:25:07;;;;;;;23.15;4.78;;;;;;;20.26;100.00;100551.31;5135368;27;20031;-77
2023/07/06 06:27:33;;;;;;;17.30;4.78;;;;;;;20.54;100.00;100542.88;5135066;27;20075;-76
2023/07/06 06:30:00;;;;;;;11.15;3.20;;;;;;;20.82;100.00;100542.34;5133201;27;20019;-75
2023/07/06 06:32:25;;;;;;;11.65;4.43;;;;;;;21.22;100.00;100546.75;5135037;27;20023;-77
2023/07/06 06:34:53;;;;;;;8.90;3.85;;;;;;;21.73;100.00;100549.28;5099360;27;20405;-77
2023/07/06 06:37:18;;;;;;;9.32;4.03;;;;;;;22.24;100.00;100554.66;5134589;27;20058;-77
2023/07/06 06:39:59;;;;;;;12.02;4.05;;;;;;;22.66;96.73;100559.09;5099356;28;20383;-78
2023/07/06 06:42:28;;;;;;;14.48;4.32;;;;;;;23.00;91.38;100572.72;5134026;27;20148;-76
2023/07/06 06:44:57;;;;;;;12.98;3.90;;;;;;;23.30;84.17;100576.56;5134998;27;20018;-77
2023/07/06 06:47:25;;;;;;;8.20;3.58;;;;;;;23.52;84.68;100574.31;5134544;27;20489;-76
2023/07/06 06:49:50;;;;;;;14.15;3.75;;;;;;;23.65;76.68;100582.97;5133493;27;20019;-78
2023/07/06 06:52:16;;;;;;;10.23;3.95;;;;;;;23.72;74.24;100585.88;5133456;27;20395;-78
2023/07/06 06:54:43;;;;;;;7.85;3.67;;;;;;;23.62;73.71;100584.88;5134440;27;20019;-77
2023/07/06 06:57:08;;;;;;;9.10;3.50;;;;;;;23.70;78.80;100588.59;5133250;27;20027;-77
2023/07/06 06:59:35;;;;;;;5.05;3.13;;;;;;;24.53;81.92;100579.22;5133077;27;20031;-76
2023/07/06 07:02:02;;;;;;;5.90;2.88;;;;;;;25.84;73.55;100590.75;5134438;27;20106;-77
2023/07/06 07:04:29;;;;;;;7.00;3.00;;;;;;;27.53;50.88;100594.53;5134675;27;20129;-76
2023/07/06 07:06:56;;;;;;;5.40;2.83;;;;;;;29.02;53.08;100590.50;5116241;28;20039;-76
2023/07/06 07:09:21;;;;;;;5.85;3.58;;;;;;;30.58;49.28;100586.03;5132894;28;20424;-76
2023/07/06 07:11:49;;;;;;;6.15;2.75;;;;;;;31.97;42.87;100581.56;5134475;27;20062;-76
2023/07/06 07:14:17;;;;;;;7.53;3.47;;;;;;;33.07;37.73;100590.88;5134403;27;20106;-77
2023/07/06 07:16:44;;;;;;;8.85;3.17;;;;;;;33.81;34.84;100579.03;5128559;27;20491;-76
2023/07/06 07:19:10;;;;;;;6.15;2.97;;;;;;;34.89;34.29;100579.16;5134400;27;20043;-77
2023/07/06 07:21:36;;;;;;;5.25;3.00;;;;;;;35.86;32.05;100578.25;5134726;27;20059;-77
2023/07/06 07:24:03;;;;;;;7.63;3.45;;;;;;;36.44;28.63;100568.47;5134370;27;20023;-76
2023/07/06 07:26:30;;;;;;;6.18;3.08;;;;;;;36.97;28.80;100573.91;5134706;27;20075;-77
2023/07/06 07:28:56;;;;;;;4.25;2.65;;;;;;;37.45;26.60;100573.09;5134100;27;20011;-77
2023/07/06 07:31:22;;;;;;;9.27;2.63;;;;;;;38.06;24.87;100572.66;5134172;27;20029;-78
2023/07/06 07:33:52;;;;;;;5.75;2.50;;;;;;;38.42;24.73;100570.34;5134208;27;20062;-77
2023/07/06 07:36:19;;;;;;;7.55;2.85;;;;;;;38.79;24.52;100546.41;5116263;28;20073;-77
2023/07/06 07:38:47;;;;;;;6.18;2.60;;;;;;;39.44;24.38;100554.72;5134264;27;20047;-77
2023/07/06 07:41:18;;;;;;;8.60;2.15;;;;;;;39.98;23.39;100549.06;5134427;27;20038;-78
2023/07/06 07:44:00;;;;;;;3.40;2.25;;;;;;;39.92;20.03;100525.69;5136810;27;20459;-77
2023/07/06 07:46:31;;;;;;;6.35;2.58;;;;;;;40.32;20.52;100535.19;5136809;27;20023;-77
2023/07/06 07:48:58;;;;;;;3.80;2.30;;;;;;;40.67;21.31;100539.22;5136952;27;20114;-78
2023/07/06 07:51:26;;;;;;;3.08;2.05;;;;;;;40.84;18.99;100541.22;5119761;27;20031;-78
2023/07/06 07:53:54;;;;;;;3.85;1.83;;;;;;;41.05;17.25;100537.31;5138300;27;20025;-77
2023/07/06 07:56:23;;;;;;;2.95;2.03;;;;;;;40.77;17.56;100542.53;5137626;27;20039;-78
2023/07/06 07:58:49;;;;;;;6.22;2.13;;;;;;;40.81;19.77;100539.63;5136642;27;20039;-77
2023/07/06 08:01:21;;;;;;;4.07;1.77;;;;;;;40.92;17.27;100545.22;5138136;27;20035;-77
2023/07/06 08:04:02;;;;;;;6.15;2.20;;;;;;;41.25;17.39;100540.88;5136918;27;20047;-76
2023/07/06 08:06:28;;;;;;;3.58;1.73;;;;;;;40.82;18.16;100538.19;5119745;27;20106;-77
2023/07/06 08:08:54;;;;;;;4.28;1.85;;;;;;;41.10;17.47;100541.97;5136903;27;20035;-77
2023/07/06 08:11:23;;;;;;;4.70;2.00;;;;;;;41.13;18.37;100531.56;5136570;27;20023;-78
2023/07/06 08:13:51;;;;;;;7.50;2.15;;;;;;;41.47;18.48;100544.47;5136560;27;20287;-77
2023/07/06 08:16:19;;;;;;;3.88;2.17;;;;;;;41.30;17.56;100526.75;5119214;27;20023;-76
2023/07/06 08:18:45;;;;;;;4.18;2.38;;;;;;;41.12;17.41;100523.28;5136177;27;20429;-77
2023/07/06 08:21:13;;;;;;;4.93;2.20;;;;;;;41.36;17.98;100536.69;5119002;27;20026;-77
2023/07/06 08:23:59;;;;;;;3.50;2.40;;;;;;;41.43;17.44;100526.34;5136351;27;20035;-77
2023/07/06 08:26:24;;;;;;;5.53;2.22;;;;;;;41.51;17.76;100531.06;5137536;27;20023;-77
2023/07/06 08:28:51;;;;;;;5.80;2.45;;;;;;;41.38;16.77;100530.72;5118819;27;20482;-78
2023/07/06 08:31:19;;;;;;;3.95;2.15;;;;;;;40.93;16.33;100533.97;5137282;27;20471;-76
2023/07/06 08:33:46;;;;;;;3.60;1.98;;;;;;;40.18;16.62;100532.50;5137348;27;20038;-76
2023/07/06 08:36:15;;;;;;;3.55;2.10;;;;;;;39.88;17.05;100536.78;5135857;27;20530;-77
2023/07/06 08:38:43;;;;;;;5.55;2.20;;;;;;;39.68;17.76;100522.66;5101994;27;20180;-77
2023/07/06 08:41:34;;;;;;;6.63;2.15;;;;;;;39.15;17.92;100529.03;5135964;27;20031;-77
2023/07/06 08:44:15;;;;;;;2.45;1.70;;;;;;;39.35;17.96;100537.94;5135606;27;20038;-77
2023/07/06 08:46:57;;;;;;;5.10;2.70;;;;;;;39.40;18.41;100533.63;5137139;27;20023;-77
2023/07/06 08:49:34;;;;;;;2.97;2.40;;;;;;;39.55;18.47;100538.66;5136856;27;20050;-76
2023/07/06 08:52:05;;;;;;;9.77;2.42;;;;;;;39.39;18.17;100529.13;5136704;27;20046;-76
2023/07/06 08:54:34;;;;;;;4.57;2.53;;;;;;;39.45;17.86;100531.59;5135439;27;20019;-77
2023/07/06 08:57:00;;;;;;;6.57;2.27;;;;;;;39.58;18.70;100528.31;5136669;27;20152;-77
2023/07/06 08:59:52;;;;;;;5.18;2.50;;;;;;;39.30;17.34;100530.28;5135759;27;20015;-77
2023/07/06 09:02:20;;;;;;;2.40;2.05;;;;;;;39.06;19.24;100526.44;5136886;27;20080;-77
2023/07/06 09:04:47;;;;;;;3.72;1.90;;;;;;;38.98;18.91;100524.69;5136483;27;20059;-78
2023/07/06 09:07:15;;;;;;;6.63;2.55;;;;;;;38.98;18.56;100536.66;5118646;27;20027;-78
2023/07/06 09:09:42;;;;;;;13.45;2.83;;;;;;;38.98;18.24;100526.91;5117650;27;20062;-76
2023/07/06 09:12:32;;;;;;;3.90;2.08;;;;;;;38.67;18.23;100533.22;5136417;27;20135;-77
2023/07/06 09:14:59;;;;;;;3.50;2.30;;;;;;;38.44;19.10;100528.63;5136689;27;20079;-76
2023/07/06 09:17:26;;;;;;;6.25;2.25;;;;;;;38.44;18.93;100537.59;5135171;27;20038;-77
2023/07/06 09:19:53;;;;;;;7.43;3.28;;;;;;;37.86;18.84;100530.81;5136171;27;20019;-78
2023/07/06 09:22:34;;;;;;;2.85;1.88;;;;;;;36.77;18.72;100537.97;5135277;27;20060;-78
2023/07/06 09:25:00;;;;;;;;;;;;;;;35.71;20.56;100532.16;5136779;27;20023;-77
2023/07/06 09:27:26;;;;;;;8.00;2.20;;;;;;;34.59;21.89;100539.63;5134859;27;20435;-76
2023/07/06 09:30:00;;;;;;;12.75;2.55;;;;;;;34.06;23.14;100542.63;5135014;27;20058;-77
2023/07/06 09:32:27;;;;;;;11.13;2.45;;;;;;;33.67;23.25;100535.94;5101295;27;20039;-77
2023/07/06 09:35:00;;;;;;;8.50;2.53;;;;;;;33.54;23.30;100546.28;5117758;27;20027;-77
2023/07/06 09:37:26;;;;;;;5.40;2.15;;;;;;;33.62;23.38;100549.72;5119712;27;20061;-79
2023/07/06 09:40:06;;;;;;;4.20;2.20;;;;;;;33.59;22.45;100553.97;5144232;27;20027;-77
2023/07/06 09:42:33;;;;;;;3.50;2.20;;;;;;;33.50;23.43;100543.84;5144458;27;20025;-77
2023/07/06 09:45:00;;;;;;;3.72;2.00;;;;;;;33.41;23.29;100547.75;5145016;27;20035;-79
2023/07/06 09:47:35;;;;;;;5.70;2.78;;;;;;;33.37;23.02;100550.50;5139452;27;20309;-77
2023/07/06 09:50:15;;;;;;;2.88;2.15;;;;;;;33.06;22.36;100550.03;5136080;27;20103;-79
2023/07/06 09:52:43;;;;;;;7.00;2.03;;;;;;;32.99;22.75;100548.13;5134598;27;20027;-77
2023/07/06 09:55:31;;;;;;;4.90;2.03;;;;;;;33.17;25.69;100543.34;5135855;27;20019;-79
2023/07/06 09:58:01;;;;;;;4.20;2.25;;;;;;;33.54;23.70;100558.13;5102058;27;20475;-77
2023/07/06 10:00:36;;;;;;;6.93;2.23;;;;;;;33.80;22.24;100559.69;5134031;27;20033;-77
2023/07/06 10:03:40;;;;;;;7.40;2.20;;;;;;;33.97;23.24;100561.38;5134028;27;20026;-77
2023/07/06 10:06:50;;;;;;;9.88;2.90;;;;;;;33.46;21.89;100551.72;5133647;27;20039;-77
2023/07/06 10:09:27;;;;;;;3.92;2.33;;;;;;;32.88;22.66;100555.59;5105183;27;20368;-77
2023/07/06 10:12:13;;;;;;;5.10;2.05;;;;;;;32.65;22.74;100558.59;5135065;27;20388;-78
2023/07/06 10:14:44;;;;;;;3.30;2.08;;;;;;;32.18;23.91;100546.00;5135003;27;20023;-77
2023/07/06 10:17:35;;;;;;;4.95;2.25;;;;;;;31.71;23.17;100563.63;5135158;27;20029;-77
2023/07/06 10:20:17;;;;;;;2.05;1.70;;;;;;;31.02;25.30;100552.22;5133531;27;20065;-77
2023/07/06 10:23:04;;;;;;;4.75;2.25;;;;;;;30.41;24.77;100558.97;5135121;27;20027;-75
2023/07/06 10:25:56;;;;;;;5.00;2.00;;;;;;;29.78;25.32;100551.41;5135519;27;20027;-76
2023/07/06 10:28:46;;;;;;;2.83;1.95;;;;;;;29.14;26.21;100550.97;5134732;27;20031;-77
2023/07/06 10:31:16;;;;;;;2.70;1.75;;;;;;;28.66;27.37;100553.84;5134626;27;20035;-76
2023/07/06 10:33:57;;;;;;;3.33;1.95;;;;;;;28.23;28.14;100560.66;5117435;27;20027;-79
2023/07/06 10:36:25;;;;;;;2.97;2.13;;;;;;;27.90;27.99;100560.94;5134658;27;20047;-77
2023/07/06 10:38:54;;;;;;;8.95;2.33;;;;;;;27.61;29.19;100565.84;5133886;27;20459;-77
2023/07/06 10:41:34;;;;;;;3.53;1.85;;;;;;;27.32;29.16;100574.44;5116478;27;20118;-78
2023/07/06 10:44:46;;;;;;;5.30;2.38;;;;;;;27.36;30.22;100565.97;5133813;27;20479;-78
2023/07/06 10:47:32;;;;;;;;;;;;;;;27.40;31.52;100560.47;5135181;27;20043;-78
2023/07/06 10:50:07;;;;;;;4.50;2.00;;;;;;;27.53;28.66;100562.25;5134750;27;19962;-76
2023/07/06 10:52:38;;;;;;;3.08;1.88;;;;;;;27.54;29.04;100560.84;5134716;27;20030;-76
2023/07/06 10:55:23;;;;;;;5.55;2.08;;;;;;;27.38;29.49;100560.28;5134450;27;20023;-78
2023/07/06 10:57:54;;;;;;;7.13;2.15;;;;;;;27.26;29.91;100562.16;5133164;27;20042;-77
2023/07/06 11:00:30;;;;;;;5.10;2.30;;;;;;;27.36;31.15;100559.31;5133098;27;20460;-77
2023/07/06 11:02:57;;;;;;;4.85;2.10;;;;;;;27.38;30.58;100565.38;5133225;27;20200;-76
2023/07/06 11:05:36;;;;;;;9.00;2.72;;;;;;;27.49;30.96;100567.78;5133434;28;20353;-77
2023/07/06 11:08:11;;;;;;;7.53;2.45;;;;;;;27.57;30.53;100565.50;5116518;28;20118;-77
2023/07/06 11:10:40;;;;;;;7.50;2.30;;;;;;;27.59;30.04;100571.56;5134581;27;20074;-75
2023/07/06 11:13:06;;;;;;;7.88;2.63;;;;;;;27.54;29.58;100560.84;5134710;27;20475;-77
2023/07/06 11:15:51;;;;;;;4.38;2.17;;;;;;;27.50;29.42;100573.03;5135915;27;20027;-77
2023/07/06 11:18:39;;;;;;;6.25;2.10;;;;;;;27.48;29.59;100569.94;5138611;27;20087;-76
2023/07/06 11:21:46;;;;;;;4.57;2.22;;;;;;;27.28;29.33;100568.19;5122680;27;20045;-77
2023/07/06 11:24:16;;;;;;;6.88;2.15;;;;;;;27.03;30.16;100571.22;5134994;27;20034;-76
2023/07/06 11:26:56;;;;;;;2.72;1.85;;;;;;;26.97;31.20;100570.69;5137168;27;20046;-77
2023/07/06 11:29:26;;;;;;;4.90;2.30;;;;;;;26.92;31.61;100576.81;5138254;27;20023;-77
2023/07/06 11:32:12;;;;;;;5.40;2.20;;;;;;;26.85;32.65;100572.59;5137013;27;20562;-78
2023/07/06 11:35:07;;;;;;;5.05;2.08;;;;;;;26.67;30.80;100570.97;5138599;27;20318;-77
2023/07/06 11:37:40;;;;;;;7.55;2.17;;;;;;;26.50;30.58;100565.09;5138512;27;20070;-77
2023/07/06 11:40:37;;;;;;;4.13;1.95;;;;;;;26.17;31.39;100550.50;5137216;27;20471;-76